Time;durP1;ratioP1;P1;durP2;ratioP2;P2;SDS_P1;SDS_P2;PMS_P1;PMS_P2;Temp;Humidity;BMP_temperature;BMP_pressure;BME280_temperature;BME280_humidity;BME280_pressure;Samples;Min_cycle;Max_cycle;Signal;HPM_P1;HPM_P2
2022/04/26 04:22:33;;;;;;;35.90;18.42;;;;;;;9.28;100.00;99918.66;5113227;27;20488;-77
2022/04/26 04:24:59;;;;;;;35.38;18.65;;;;;;;9.27;100.00;99917.00;5113243;28;20093;-77
2022/04/26 04:27:24;;;;;;;34.88;19.83;;;;;;;9.29;100.00;99918.47;5115538;28;20060;-77
2022/04/26 04:29:51;;;;;;;32.00;18.40;;;;;;;9.29;100.00;99915.81;5111235;28;20058;-77
2022/04/26 04:32:17;;;;;;;31.75;17.70;;;;;;;9.30;100.00;99916.66;5110650;28;20039;-77
2022/04/26 04:34:43;;;;;;;34.15;18.15;;;;;;;9.27;100.00;99919.66;5109453;28;20036;-77
2022/04/26 04:37:09;;;;;;;31.88;18.48;;;;;;;9.29;100.00;99931.78;5109588;28;20047;-77
2022/04/26 04:39:35;;;;;;;29.50;17.17;;;;;;;9.32;100.00;99936.72;5109909;28;20051;-77
2022/04/26 04:42:03;;;;;;;29.75;18.40;;;;;;;9.33;100.00;99937.59;5107876;28;20031;-76
2022/04/26 04:44:29;;;;;;;32.60;16.70;;;;;;;9.30;100.00;99944.06;5091216;28;20077;-78
2022/04/26 04:47:00;;;;;;;26.98;16.38;;;;;;;9.37;100.00;99949.50;5107700;28;20036;-77
2022/04/26 04:49:26;;;;;;;28.45;16.50;;;;;;;9.33;100.00;99949.03;5109100;28;20059;-77
2022/04/26 04:51:52;;;;;;;28.65;16.17;;;;;;;9.35;100.00;99949.69;5107748;28;20507;-78
2022/04/26 04:54:18;;;;;;;26.15;14.98;;;;;;;9.38;100.00;99944.03;5109302;28;20028;-78
2022/04/26 04:56:43;;;;;;;25.80;14.88;;;;;;;9.39;100.00;99944.84;5109004;28;20040;-77
2022/04/26 04:59:09;;;;;;;24.00;15.27;;;;;;;9.40;100.00;99950.00;5107658;28;20028;-77
2022/04/26 05:01:35;;;;;;;26.27;16.00;;;;;;;9.43;100.00;99959.47;5108881;28;20104;-78
2022/04/26 05:04:01;;;;;;;24.98;14.73;;;;;;;9.44;100.00;99953.97;5110272;28;20434;-77
2022/04/26 05:06:26;;;;;;;24.83;15.63;;;;;;;9.45;100.00;99953.00;5112251;28;20035;-78
2022/04/26 05:08:52;;;;;;;25.02;14.95;;;;;;;9.43;100.00;99957.63;5107739;28;20049;-78
2022/04/26 05:11:17;;;;;;;22.25;14.15;;;;;;;9.46;100.00;99964.44;5108952;28;20032;-77
2022/04/26 05:13:43;;;;;;;20.02;13.80;;;;;;;9.44;100.00;99969.09;5107236;28;20499;-77
2022/04/26 05:16:09;;;;;;;19.55;12.38;;;;;;;9.42;100.00;99965.78;5108665;28;20427;-77
2022/04/26 05:18:34;;;;;;;19.23;12.82;;;;;;;9.45;100.00;99976.91;5107507;28;20035;-77
2022/04/26 05:21:00;;;;;;;19.63;12.75;;;;;;;9.42;100.00;99974.59;5108370;28;20403;-78
2022/04/26 05:26:10;;;;;;;20.08;12.30;;;;;;;9.47;100.00;99972.25;5108427;28;20075;-78
2022/04/26 05:28:36;;;;;;;19.60;13.30;;;;;;;9.49;100.00;99969.41;5107270;28;20052;-79
2022/04/26 05:31:01;;;;;;;21.50;13.60;;;;;;;9.49;100.00;99972.88;5110631;28;20035;-78
2022/04/26 05:33:27;;;;;;;22.50;13.48;;;;;;;9.52;100.00;99977.88;5100293;28;20131;-78
2022/04/26 05:35:53;;;;;;;23.13;14.02;;;;;;;9.55;100.00;99976.69;5099211;28;20682;-78
2022/04/26 05:38:20;;;;;;;26.55;14.05;;;;;;;9.59;100.00;99978.03;5095099;28;20036;-78
2022/04/26 05:41:07;;;;;;;23.40;15.05;;;;;;;9.60;100.00;99982.31;5097603;28;20069;-78
2022/04/26 05:43:47;;;;;;;22.60;14.63;;;;;;;9.65;100.00;99981.78;5096450;28;20043;-78
2022/04/26 05:46:13;;;;;;;28.75;16.63;;;;;;;9.66;100.00;99975.50;5060891;28;20047;-78
2022/04/26 05:48:43;;;;;;;26.67;16.83;;;;;;;9.62;100.00;99969.69;5097637;28;20040;-78
2022/04/26 05:51:09;;;;;;;28.23;16.50;;;;;;;9.72;100.00;99972.97;5080022;28;20050;-77
2022/04/26 05:53:35;;;;;;;26.20;16.23;;;;;;;9.75;100.00;99969.13;5096907;28;20473;-78
2022/04/26 05:56:08;;;;;;;29.58;18.00;;;;;;;9.71;100.00;99973.13;5096798;28;20089;-77
2022/04/26 05:58:34;;;;;;;34.53;20.30;;;;;;;9.70;100.00;99976.78;5096567;28;20384;-78
2022/04/26 06:01:00;;;;;;;35.28;20.40;;;;;;;9.69;100.00;99973.28;5097654;28;20118;-78
2022/04/26 06:03:26;;;;;;;29.83;17.92;;;;;;;9.71;100.00;99978.44;5097385;28;20404;-79
2022/04/26 06:05:55;;;;;;;32.42;17.85;;;;;;;9.72;100.00;99977.47;5078279;28;20067;-78
2022/04/26 06:08:22;;;;;;;32.85;18.48;;;;;;;9.77;100.00;99975.09;5096085;28;20119;-77
2022/04/26 06:10:48;;;;;;;31.67;19.27;;;;;;;9.86;100.00;99970.56;5094871;28;20032;-76
2022/04/26 06:13:15;;;;;;;31.25;19.98;;;;;;;9.96;100.00;99971.97;5092526;28;20105;-76
2022/04/26 06:15:41;;;;;;;30.17;18.20;;;;;;;10.06;100.00;99977.09;5093967;28;20437;-75
2022/04/26 06:18:06;;;;;;;34.03;19.23;;;;;;;10.11;100.00;99981.91;5092679;28;20065;-75
2022/04/26 06:20:32;;;;;;;34.15;18.02;;;;;;;10.13;100.00;99991.34;5058919;28;20127;-75
2022/04/26 06:22:58;;;;;;;27.05;16.38;;;;;;;10.19;100.00;99987.97;5092285;28;20143;-74
2022/04/26 06:25:24;;;;;;;29.73;17.73;;;;;;;10.22;100.00;99989.44;5093620;28;20028;-75
2022/04/26 06:27:50;;;;;;;31.02;17.40;;;;;;;10.23;100.00;99996.44;5093756;28;20066;-75
2022/04/26 06:30:16;;;;;;;29.67;16.38;;;;;;;10.23;100.00;99999.13;5075636;28;20063;-75
2022/04/26 06:32:43;;;;;;;29.52;16.55;;;;;;;10.30;100.00;99997.41;5093183;28;20068;-76
2022/04/26 06:35:10;;;;;;;28.58;16.92;;;;;;;10.31;100.00;100001.75;5093483;28;20032;-75
2022/04/26 06:37:39;;;;;;;24.88;16.95;;;;;;;10.34;100.00;100004.03;5092437;28;20438;-74
2022/04/26 06:40:05;;;;;;;26.00;16.10;;;;;;;10.36;100.00;100003.84;5075598;28;20047;-72
2022/04/26 06:42:31;;;;;;;24.88;15.70;;;;;;;10.43;100.00;100008.31;5093028;28;20035;-71
2022/04/26 06:44:56;;;;;;;23.33;15.23;;;;;;;10.43;100.00;100007.47;5092414;28;20036;-72
2022/04/26 06:47:22;;;;;;;25.98;16.23;;;;;;;10.38;100.00;100007.19;5092081;28;20119;-73
2022/04/26 06:49:48;;;;;;;26.77;16.67;;;;;;;10.36;100.00;99999.34;5093312;28;20108;-72
2022/04/26 06:52:13;;;;;;;25.40;16.30;;;;;;;10.46;100.00;100009.78;5093044;28;20414;-74
2022/04/26 06:54:39;;;;;;;26.55;16.40;;;;;;;10.52;100.00;100007.22;5092040;28;20039;-74
2022/04/26 06:57:05;;;;;;;27.13;16.83;;;;;;;10.65;100.00;100008.47;5075147;28;20047;-73
2022/04/26 06:59:31;;;;;;;24.92;15.75;;;;;;;10.68;100.00;100008.91;5093511;28;20405;-76
2022/04/26 07:01:56;;;;;;;24.52;17.42;;;;;;;10.76;100.00;100008.06;5092730;28;20032;-76
2022/04/26 07:04:22;;;;;;;24.50;14.18;;;;;;;10.70;100.00;100017.59;5092954;28;20105;-76
2022/04/26 07:06:48;;;;;;;24.80;16.23;;;;;;;10.87;100.00;100007.59;5092985;28;20449;-77
2022/04/26 07:09:14;;;;;;;26.67;17.40;;;;;;;10.96;100.00;100016.34;5093109;28;20054;-77
2022/04/26 07:11:42;;;;;;;27.65;15.60;;;;;;;11.00;100.00;100002.47;5094608;28;20036;-76
2022/04/26 07:14:10;;;;;;;23.15;15.32;;;;;;;11.11;100.00;100015.34;5093661;28;20115;-76
2022/04/26 07:16:36;;;;;;;25.77;15.50;;;;;;;11.13;100.00;100013.31;5091306;28;20039;-75
2022/04/26 07:19:02;;;;;;;22.50;15.02;;;;;;;11.26;100.00;100014.53;5092823;28;20040;-74
2022/04/26 07:21:27;;;;;;;23.40;15.85;;;;;;;11.23;100.00;100015.75;5092245;28;20040;-74
2022/04/26 07:23:53;;;;;;;21.05;13.75;;;;;;;11.34;98.96;100017.94;5092489;28;20036;-74
2022/04/26 07:26:18;;;;;;;20.38;14.15;;;;;;;11.47;95.55;100009.28;5092353;28;20453;-74
2022/04/26 07:28:44;;;;;;;20.40;14.00;;;;;;;11.50;94.63;100014.28;5091168;28;20342;-76
2022/04/26 07:31:10;;;;;;;18.17;13.05;;;;;;;11.48;95.20;100010.16;5092203;28;20085;-74
2022/04/26 07:36:22;;;;;;;20.25;13.20;;;;;;;11.49;96.38;100009.94;5091278;28;20036;-76
2022/04/26 07:38:47;;;;;;;;;;;;;;;11.60;97.71;100012.13;5092749;28;20055;-74
2022/04/26 07:41:13;;;;;;;22.40;13.82;;;;;;;11.60;99.20;100009.47;5090863;28;19967;-74
2022/04/26 07:43:39;;;;;;;19.48;13.25;;;;;;;11.63;96.15;100021.63;5090746;28;20070;-73
2022/04/26 07:46:05;;;;;;;19.95;13.18;;;;;;;11.64;96.14;100010.75;5092176;28;20059;-73
2022/04/26 07:48:30;;;;;;;19.88;13.75;;;;;;;11.73;96.94;100006.13;5092137;28;20424;-74
2022/04/26 07:50:56;;;;;;;20.30;14.68;;;;;;;11.77;100.00;100010.09;5091911;28;20039;-74
2022/04/26 07:53:25;;;;;;;21.85;14.05;;;;;;;11.83;94.68;100006.72;5090506;28;20036;-74
2022/04/26 07:55:50;;;;;;;24.88;14.60;;;;;;;11.94;94.37;100010.75;5090436;28;20220;-73
2022/04/26 07:58:16;;;;;;;17.40;12.77;;;;;;;11.90;90.44;100014.81;5091892;28;20130;-75
2022/04/26 08:00:42;;;;;;;19.40;12.48;;;;;;;12.06;90.08;100014.59;5091964;28;20079;-73
2022/04/26 08:03:07;;;;;;;17.58;12.68;;;;;;;12.04;88.60;100015.78;5091527;28;20080;-70
2022/04/26 08:05:33;;;;;;;22.02;12.63;;;;;;;11.99;90.71;100024.34;5091872;28;20494;-71
2022/04/26 08:07:59;;;;;;;16.98;12.48;;;;;;;12.11;89.86;100022.84;5091685;28;20039;-70
2022/04/26 08:10:25;;;;;;;17.90;12.27;;;;;;;12.26;89.88;100029.97;5073583;28;20031;-69
2022/04/26 08:12:50;;;;;;;15.70;11.88;;;;;;;12.43;92.25;100028.72;5091434;28;20116;-69
2022/04/26 08:15:18;;;;;;;15.93;11.90;;;;;;;12.44;87.29;100025.84;5090449;28;20524;-70
2022/04/26 08:17:44;;;;;;;16.88;12.10;;;;;;;12.28;88.69;100041.31;5091785;28;20047;-70
2022/04/26 08:20:10;;;;;;;16.48;11.55;;;;;;;12.32;88.22;100039.91;5090309;28;20036;-70
2022/04/26 08:22:37;;;;;;;17.42;12.10;;;;;;;12.29;88.08;100041.13;5091358;28;20100;-73
2022/04/26 08:27:49;;;;;;;14.18;10.00;;;;;;;12.91;85.62;100061.00;5091900;28;20032;-72
2022/04/26 08:30:16;;;;;;;15.00;10.68;;;;;;;13.11;83.41;100059.34;5090986;28;20043;-74
2022/04/26 08:32:48;;;;;;;15.13;9.75;;;;;;;13.32;79.34;100057.69;5091586;28;20081;-73
2022/04/26 08:35:25;;;;;;;15.65;9.98;;;;;;;13.44;76.56;100059.63;5091353;28;20032;-73
2022/04/26 08:37:50;;;;;;;14.95;9.73;;;;;;;13.52;77.32;100061.31;5091638;28;20481;-74
2022/04/26 08:40:16;;;;;;;10.05;7.90;;;;;;;13.54;74.16;100067.28;5091366;28;20093;-73
2022/04/26 08:42:46;;;;;;;11.43;7.80;;;;;;;13.73;73.82;100071.09;5091364;28;20046;-74
2022/04/26 08:45:14;;;;;;;10.93;8.65;;;;;;;13.92;70.36;100065.00;5090363;28;20411;-73
2022/04/26 08:53:14;;;;;;;10.15;8.60;;;;;;;14.19;73.39;100070.47;5091267;28;20036;-74
2022/04/26 08:55:42;;;;;;;10.30;8.13;;;;;;;14.44;73.23;100071.59;5091381;28;20060;-74
2022/04/26 08:58:10;;;;;;;;;;;;;;;14.63;66.36;100067.31;5091872;28;20036;-74
2022/04/26 09:00:36;;;;;;;9.57;7.70;;;;;;;14.63;66.30;100073.50;5091320;28;19923;-74
2022/04/26 09:03:04;;;;;;;9.10;7.88;;;;;;;14.79;64.21;100074.13;5091155;28;20404;-74
2022/04/26 09:05:31;;;;;;;11.15;7.63;;;;;;;14.98;68.72;100075.19;5091368;28;20548;-74
2022/04/26 09:07:58;;;;;;;11.85;9.05;;;;;;;14.71;70.87;100077.03;5092732;28;20032;-74
2022/04/26 09:10:25;;;;;;;10.68;8.23;;;;;;;14.49;67.56;100093.28;5095191;28;20062;-73
2022/04/26 09:13:09;;;;;;;13.13;9.23;;;;;;;14.32;68.21;100087.41;5076726;28;20051;-74
2022/04/26 09:15:42;;;;;;;14.25;8.63;;;;;;;14.30;71.41;100091.34;5093724;28;20046;-73
2022/04/26 09:18:24;;;;;;;10.52;8.38;;;;;;;14.37;71.93;100092.19;5093728;28;20074;-75
2022/04/26 09:21:07;;;;;;;11.90;8.63;;;;;;;14.08;68.49;100095.97;5094952;28;20106;-73
2022/04/26 09:23:33;;;;;;;11.52;7.93;;;;;;;13.89;69.50;100107.41;5093403;28;20040;-73
2022/04/26 09:25:58;;;;;;;12.00;8.75;;;;;;;13.86;70.31;100097.94;5094769;28;20088;-73
2022/04/26 09:28:27;;;;;;;12.50;7.97;;;;;;;13.97;69.68;100104.59;5094880;28;20028;-74
2022/04/26 09:30:53;;;;;;;10.13;7.95;;;;;;;13.61;71.18;100104.78;5094908;28;20129;-73
2022/04/26 09:33:42;;;;;;;12.90;8.27;;;;;;;13.41;74.81;100093.94;5093264;28;20036;-75
2022/04/26 09:36:10;;;;;;;10.73;8.60;;;;;;;13.46;71.33;100096.88;5094703;28;20477;-73
2022/04/26 09:38:39;;;;;;;10.57;8.43;;;;;;;13.53;73.11;100103.09;5076784;28;20109;-75
2022/04/26 09:41:09;;;;;;;13.00;9.02;;;;;;;13.53;73.55;100105.78;5094550;28;20489;-73
2022/04/26 09:43:36;;;;;;;7.95;6.05;;;;;;;13.34;68.15;100115.31;5094306;28;20028;-74
2022/04/26 09:46:04;;;;;;;5.22;4.35;;;;;;;12.97;68.46;100119.06;5094480;28;20059;-74
2022/04/26 09:48:35;;;;;;;;;;;;;;;12.59;73.15;100130.03;5095071;28;20043;-75
2022/04/26 09:51:06;;;;;;;4.85;3.45;;;;;;;12.46;74.65;100136.03;5094409;28;20283;-73
2022/04/26 09:53:32;;;;;;;5.63;3.28;;;;;;;12.33;69.61;100137.72;5094097;28;20549;-75
2022/04/26 09:56:00;;;;;;;4.45;3.00;;;;;;;12.13;68.71;100132.16;5093111;28;20024;-74
2022/04/26 09:58:27;;;;;;;5.18;3.20;;;;;;;11.86;73.03;100139.78;5076307;28;20511;-73
2022/04/26 10:00:54;;;;;;;3.83;2.90;;;;;;;11.76;76.07;100138.38;5094317;28;20532;-73
2022/04/26 10:03:25;;;;;;;5.25;3.63;;;;;;;11.72;74.02;100139.75;5093974;28;20270;-73
2022/04/26 10:06:00;;;;;;;6.90;4.60;;;;;;;11.92;76.54;100136.38;5094137;28;20511;-73
2022/04/26 10:08:29;;;;;;;4.78;3.55;;;;;;;12.02;78.15;100136.09;5094097;28;20115;-74
2022/04/26 10:10:56;;;;;;;8.02;4.35;;;;;;;12.28;77.23;100132.94;5094178;28;20104;-72
2022/04/26 10:13:32;;;;;;;5.40;3.88;;;;;;;13.01;74.30;100131.03;5092434;28;20035;-74
2022/04/26 10:16:04;;;;;;;5.80;4.53;;;;;;;13.82;67.87;100126.13;5076014;28;20374;-73
2022/04/26 10:18:39;;;;;;;7.82;5.40;;;;;;;14.82;70.16;100135.41;5093847;28;20058;-73
2022/04/26 10:21:06;;;;;;;8.27;6.07;;;;;;;15.54;64.54;100123.06;5075482;28;20093;-73
2022/04/26 10:23:56;;;;;;;7.80;5.47;;;;;;;16.29;63.09;100132.38;5092320;28;20401;-73
2022/04/26 10:26:24;;;;;;;12.93;7.82;;;;;;;16.14;67.33;100127.28;5080379;28;20818;-73
2022/04/26 10:28:57;;;;;;;10.40;7.15;;;;;;;16.99;61.65;100132.44;5093818;28;20106;-73
2022/04/26 10:31:45;;;;;;;11.43;8.82;;;;;;;17.02;62.01;100132.84;5093532;28;20047;-73
2022/04/26 10:34:20;;;;;;;11.68;8.50;;;;;;;18.08;56.47;100123.78;5080559;28;20424;-73
2022/04/26 10:36:48;;;;;;;13.02;8.65;;;;;;;17.82;56.00;100118.69;5057759;28;20040;-73
2022/04/26 10:39:13;;;;;;;13.40;8.65;;;;;;;17.45;57.01;100115.91;5073159;28;20021;-74
2022/04/26 10:41:43;;;;;;;11.65;8.77;;;;;;;17.30;55.16;100120.81;5072600;28;20043;-74
2022/04/26 10:44:26;;;;;;;13.48;9.52;;;;;;;16.40;60.63;100120.97;5072827;28;20067;-74
2022/04/26 10:47:01;;;;;;;13.52;9.73;;;;;;;16.21;61.24;100127.25;5071716;28;20040;-74
2022/04/26 10:49:32;;;;;;;10.93;8.68;;;;;;;16.02;63.97;100140.53;5073126;28;20056;-73
2022/04/26 10:52:22;;;;;;;12.80;10.25;;;;;;;15.41;68.96;100164.97;5072041;28;20074;-73
2022/04/26 10:55:01;;;;;;;20.80;11.23;;;;;;;14.69;73.21;100181.78;5072776;28;20098;-73
2022/04/26 10:57:29;;;;;;;15.30;8.95;;;;;;;13.89;64.64;100174.34;5072887;28;20036;-72
2022/04/26 11:00:03;;;;;;;;;;;;;;;12.10;75.32;100189.41;5091738;28;20051;-72
2022/04/26 11:02:31;;;;;;;14.93;8.60;;;;;;;12.33;73.00;100191.97;5091960;28;19938;-74
2022/04/26 11:05:10;;;;;;;13.73;9.85;;;;;;;12.01;76.61;100201.19;5092768;28;20031;-73
2022/04/26 11:07:41;;;;;;;18.90;9.90;;;;;;;11.65;79.77;100204.50;5092912;28;20040;-75
2022/04/26 11:10:09;;;;;;;13.38;8.98;;;;;;;11.95;79.18;100194.75;5092798;28;20438;-73
2022/04/26 11:12:36;;;;;;;;;;;;;;;11.94;80.20;100202.94;5091157;28;20031;-73
2022/04/26 11:15:13;;;;;;;16.10;10.35;;;;;;;11.76;82.83;100205.09;5092507;28;20004;-73
2022/04/26 11:17:40;;;;;;;18.20;10.07;;;;;;;12.03;81.95;100209.84;5092649;28;20552;-73
2022/04/26 11:20:21;;;;;;;14.50;9.40;;;;;;;12.05;84.15;100215.81;5091262;28;20421;-75
2022/04/26 11:22:53;;;;;;;17.75;9.60;;;;;;;12.03;92.09;100223.19;5091804;28;20032;-74
2022/04/26 11:28:10;;;;;;;13.68;9.55;;;;;;;12.15;84.01;100224.41;5092913;28;20341;-75
2022/04/26 11:30:40;;;;;;;10.15;7.40;;;;;;;11.77;82.23;100228.09;5092361;28;20047;-73
2022/04/26 11:33:06;;;;;;;10.98;7.03;;;;;;;11.61;82.62;100229.09;5091534;28;20673;-73
2022/04/26 11:35:34;;;;;;;10.38;7.45;;;;;;;12.06;83.61;100232.66;5090523;28;20043;-72
2022/04/26 11:38:11;;;;;;;9.82;6.90;;;;;;;12.64;82.51;100234.47;5092016;28;20493;-73
2022/04/26 11:40:38;;;;;;;8.02;5.53;;;;;;;14.08;75.15;100238.78;5090820;28;20044;-70
2022/04/26 11:43:17;;;;;;;;;;;;;;;14.86;69.82;100231.31;5091665;28;20507;-73
2022/04/26 11:45:48;;;;;;;6.57;4.45;;;;;;;15.35;64.32;100232.91;5090702;28;19916;-72
2022/04/26 11:48:19;;;;;;;4.65;3.60;;;;;;;16.17;60.32;100226.28;5092146;28;20225;-73
2022/04/26 11:50:48;;;;;;;5.72;4.00;;;;;;;16.68;55.93;100227.34;5091943;28;20063;-74
2022/04/26 11:53:18;;;;;;;7.18;3.85;;;;;;;15.76;63.83;100223.03;5091233;28;20063;-73
2022/04/26 11:55:46;;;;;;;4.72;3.22;;;;;;;17.18;58.07;100228.38;5091842;28;20105;-74
2022/04/26 11:58:16;;;;;;;;;;;;;;;17.59;53.11;100229.72;5092211;28;20051;-74
2022/04/26 12:01:03;;;;;;;4.15;3.00;;;;;;;17.64;53.10;100229.91;5091460;28;19926;-73
2022/04/26 12:03:44;;;;;;;4.68;3.15;;;;;;;17.11;54.91;100234.84;5090967;28;20050;-73
2022/04/26 12:06:12;;;;;;;3.78;2.72;;;;;;;17.91;53.09;100230.53;5091893;28;20074;-74
2022/04/26 12:08:43;;;;;;;3.90;2.70;;;;;;;18.47;48.04;100234.09;5090266;28;20027;-74
2022/04/26 12:11:18;;;;;;;4.35;2.63;;;;;;;18.49;45.83;100230.13;5090746;28;20065;-75
2022/04/26 12:13:45;;;;;;;2.70;2.40;;;;;;;16.24;50.10;100232.47;5090858;28;20155;-74
2022/04/26 12:16:18;;;;;;;3.10;2.60;;;;;;;16.17;54.19;100236.19;5091630;28;20028;-75
2022/04/26 12:18:52;;;;;;;3.42;2.35;;;;;;;16.40;54.15;100241.09;5091259;28;20415;-74
2022/04/26 12:21:18;;;;;;;3.83;2.47;;;;;;;15.63;56.95;100253.38;5073387;28;20043;-73
2022/04/26 12:23:44;;;;;;;3.55;2.90;;;;;;;14.68;58.54;100255.22;5089667;28;20112;-73
2022/04/26 12:26:10;;;;;;;4.22;2.97;;;;;;;14.72;59.00;100261.81;5091242;28;20119;-74
2022/04/26 12:28:50;;;;;;;4.63;2.88;;;;;;;14.71;59.53;100262.00;5091347;28;20508;-73
2022/04/26 12:31:25;;;;;;;3.83;2.90;;;;;;;14.43;59.98;100259.38;5091303;28;20028;-73
2022/04/26 12:34:13;;;;;;;3.47;2.88;;;;;;;14.35;59.50;100255.00;5090793;28;20051;-73
2022/04/26 12:37:03;;;;;;;3.30;2.88;;;;;;;14.42;57.55;100253.19;5091322;28;20059;-73
2022/04/26 12:39:43;;;;;;;3.83;2.95;;;;;;;14.63;59.36;100249.59;5090887;28;20481;-73
2022/04/26 12:42:15;;;;;;;4.18;3.00;;;;;;;14.44;58.83;100253.00;5089487;28;20036;-73
2022/04/26 12:44:58;;;;;;;4.38;3.10;;;;;;;14.35;59.65;100250.47;5095239;28;20036;-73
2022/04/26 12:50:29;;;;;;;5.13;2.97;;;;;;;14.26;58.86;100254.31;5095131;28;20516;-73
2022/04/26 12:52:59;;;;;;;5.43;3.47;;;;;;;14.39;63.68;100261.59;5094621;28;20085;-72
2022/04/26 12:55:31;;;;;;;6.97;3.58;;;;;;;14.26;59.01;100253.50;5095141;28;20056;-74
2022/04/26 12:58:05;;;;;;;5.88;4.18;;;;;;;14.75;59.67;100260.59;5093982;28;20028;-72
2022/04/26 13:00:32;;;;;;;5.97;3.83;;;;;;;15.26;61.49;100263.66;5094704;28;20485;-72
2022/04/26 13:03:03;;;;;;;5.43;3.83;;;;;;;15.41;55.75;100264.28;5094208;28;20081;-72
2022/04/26 13:05:44;;;;;;;5.95;3.85;;;;;;;15.94;55.28;100256.28;5094563;28;20541;-73
2022/04/26 13:08:11;;;;;;;4.30;3.40;;;;;;;16.17;54.24;100253.16;5078826;28;20043;-74
2022/04/26 13:10:40;;;;;;;5.47;4.15;;;;;;;15.71;54.44;100263.91;5074578;28;20033;-73
2022/04/26 13:13:06;;;;;;;5.57;4.10;;;;;;;15.94;53.96;100258.16;5072960;28;20033;-73
2022/04/26 13:15:32;;;;;;;5.93;3.60;;;;;;;16.70;53.57;100258.41;5074473;28;20039;-72
2022/04/26 13:17:59;;;;;;;4.15;3.35;;;;;;;16.10;50.87;100254.19;5073232;28;20108;-74
2022/04/26 13:20:25;;;;;;;4.88;3.33;;;;;;;16.32;52.62;100254.78;5074228;28;20135;-73
2022/04/26 13:22:51;;;;;;;7.50;3.30;;;;;;;16.19;52.71;100259.16;5074209;28;20028;-73
2022/04/26 13:25:17;;;;;;;4.78;3.50;;;;;;;16.15;54.54;100254.38;5072899;28;20096;-72
2022/04/26 13:27:45;;;;;;;7.05;3.75;;;;;;;15.96;54.65;100259.56;5074245;28;20403;-72
2022/04/26 13:30:11;;;;;;;;;;;;;;;15.77;55.52;100251.53;5074659;28;20058;-72
2022/04/26 13:32:37;;;;;;;5.10;3.42;;;;;;;15.80;58.10;100251.13;5073818;28;19951;-72
2022/04/26 13:35:05;;;;;;;6.18;3.75;;;;;;;15.62;56.78;100249.06;5072891;28;20536;-72
2022/04/26 13:37:31;;;;;;;7.47;3.78;;;;;;;15.77;55.88;100248.84;5074021;28;20382;-72
2022/04/26 13:39:58;;;;;;;5.35;3.40;;;;;;;15.70;54.52;100256.91;5072866;28;20481;-71
2022/04/26 13:42:25;;;;;;;6.20;3.70;;;;;;;15.14;60.11;100257.22;5073944;28;20064;-72
2022/04/26 13:44:54;;;;;;;7.87;3.63;;;;;;;14.95;58.13;100263.34;5074183;28;20047;-72
2022/04/26 13:47:20;;;;;;;6.25;4.05;;;;;;;14.72;59.84;100269.03;5074006;28;20043;-72
2022/04/26 13:49:46;;;;;;;7.53;4.95;;;;;;;14.02;66.56;100289.63;5073981;28;20040;-72
2022/04/26 13:52:13;;;;;;;8.18;5.10;;;;;;;13.24;72.53;100302.06;5073700;28;20504;-72
2022/04/26 13:54:42;;;;;;;8.02;4.90;;;;;;;11.82;74.78;100311.97;5038787;28;20033;-72
2022/04/26 13:57:08;;;;;;;7.93;4.13;;;;;;;11.13;74.36;100306.56;5073846;28;20036;-73
2022/04/26 13:59:33;;;;;;;6.55;3.95;;;;;;;11.07;76.58;100301.13;5074094;28;20028;-72
2022/04/26 14:01:59;;;;;;;6.22;3.58;;;;;;;10.82;78.58;100303.06;5073440;28;20474;-72
2022/04/26 14:04:25;;;;;;;6.05;3.35;;;;;;;11.03;79.91;100294.50;5074375;28;20097;-72
2022/04/26 14:06:50;;;;;;;5.35;3.67;;;;;;;11.10;79.47;100290.94;5074235;28;20040;-72
2022/04/26 14:09:17;;;;;;;5.50;3.75;;;;;;;10.75;85.23;100297.59;5072521;28;20494;-73
2022/04/26 14:11:44;;;;;;;7.88;3.95;;;;;;;10.70;88.05;100307.97;5073559;28;20416;-72
2022/04/26 14:22:23;;;;;;;7.18;3.90;;;;;;;11.20;86.27;100297.88;5073169;28;20047;-72
2022/04/26 14:24:52;;;;;;;6.57;4.53;;;;;;;11.39;83.56;100298.25;5073505;28;20032;-72
2022/04/26 14:27:19;;;;;;;5.63;4.30;;;;;;;11.62;90.99;100297.44;5073337;28;20119;-72
2022/04/26 14:29:44;;;;;;;6.38;4.68;;;;;;;11.60;93.18;100289.59;5073407;28;20118;-72
2022/04/26 14:32:11;;;;;;;6.88;4.30;;;;;;;11.50;91.64;100289.00;5073184;28;20469;-73
2022/04/26 14:34:38;;;;;;;7.40;4.60;;;;;;;11.78;90.63;100283.94;5073540;28;20485;-72
2022/04/26 14:37:04;;;;;;;6.93;4.53;;;;;;;11.92;84.95;100290.34;5073153;28;20040;-74
2022/04/26 14:39:30;;;;;;;5.38;3.75;;;;;;;11.85;85.37;100284.09;5073351;28;20040;-73
2022/04/26 14:41:55;;;;;;;5.15;3.60;;;;;;;11.97;86.89;100287.16;5072107;28;20386;-72
2022/04/26 14:44:21;;;;;;;6.95;4.00;;;;;;;12.02;86.68;100293.63;5073262;28;20032;-72
2022/04/26 14:46:47;;;;;;;6.13;3.85;;;;;;;12.14;88.31;100300.19;5071886;28;20040;-73
2022/04/26 14:49:12;;;;;;;5.45;3.55;;;;;;;12.44;85.23;100295.66;5073006;28;20043;-72
2022/04/26 14:51:38;;;;;;;6.18;3.55;;;;;;;12.35;86.28;100296.78;5072829;28;20426;-72
2022/04/26 14:54:03;;;;;;;6.00;3.90;;;;;;;12.32;81.84;100296.31;5072904;28;20033;-72
2022/04/26 14:56:29;;;;;;;5.85;3.95;;;;;;;12.48;82.65;100291.63;5072923;28;20067;-72
2022/04/26 14:58:55;;;;;;;6.97;4.10;;;;;;;12.48;84.90;100301.50;5073644;28;20086;-72
2022/04/26 15:01:21;;;;;;;5.40;3.47;;;;;;;12.67;80.88;100310.78;5072613;28;20037;-73
2022/04/26 15:03:47;;;;;;;6.57;3.42;;;;;;;12.71;80.80;100310.25;5072541;28;20520;-73
2022/04/26 15:06:12;;;;;;;5.30;3.75;;;;;;;12.53;87.36;100309.78;5071797;28;20044;-73
2022/04/26 15:11:22;;;;;;;4.55;3.53;;;;;;;12.63;85.00;100309.50;5072640;28;20036;-72
2022/04/26 15:16:38;;;;;;;6.05;4.53;;;;;;;12.71;80.33;100315.59;5072375;28;20037;-72
2022/04/26 15:19:10;;;;;;;5.43;4.45;;;;;;;12.76;80.67;100318.50;5072726;28;20082;-72
2022/04/26 15:21:37;;;;;;;6.90;4.90;;;;;;;12.68;81.55;100323.13;5072099;28;20035;-73
2022/04/26 15:24:03;;;;;;;7.30;4.93;;;;;;;12.70;83.69;100327.28;5072369;28;20027;-73
2022/04/26 15:26:29;;;;;;;10.32;4.80;;;;;;;12.52;84.82;100326.84;5072532;28;20105;-72
2022/04/26 15:28:56;;;;;;;6.25;4.60;;;;;;;12.53;80.70;100335.69;5071140;28;20496;-72
2022/04/26 15:31:22;;;;;;;5.07;3.80;;;;;;;12.27;80.33;100326.25;5072432;28;20048;-74
2022/04/26 15:33:50;;;;;;;6.50;4.22;;;;;;;12.20;80.17;100336.84;5072003;28;20044;-72
2022/04/26 15:36:17;;;;;;;7.10;3.80;;;;;;;12.08;81.25;100329.44;5071991;28;20044;-72
2022/04/26 15:38:43;;;;;;;5.17;3.57;;;;;;;12.02;84.08;100338.16;5071955;28;20029;-71
2022/04/26 15:41:09;;;;;;;4.22;3.10;;;;;;;12.16;82.69;100334.69;5072040;28;20484;-72
2022/04/26 15:43:37;;;;;;;4.68;3.20;;;;;;;12.04;81.97;100346.81;5071786;28;20032;-72
2022/04/26 15:46:05;;;;;;;4.45;3.20;;;;;;;12.05;80.76;100345.81;5070676;28;20040;-72
2022/04/26 15:48:31;;;;;;;6.50;2.95;;;;;;;12.18;81.38;100332.66;5071934;28;20405;-71
2022/04/26 15:50:57;;;;;;;4.63;3.00;;;;;;;12.15;80.43;100338.38;5071868;28;20397;-71
2022/04/26 15:53:23;;;;;;;4.55;3.40;;;;;;;12.20;78.44;100336.84;5071642;28;20055;-72
2022/04/26 15:55:49;;;;;;;6.15;3.70;;;;;;;11.71;80.28;100339.03;5068245;28;20067;-72
2022/04/26 15:58:15;;;;;;;5.38;3.45;;;;;;;11.93;81.23;100345.41;5069032;28;20103;-73
2022/04/26 16:00:41;;;;;;;4.28;3.30;;;;;;;11.84;81.89;100341.16;5071603;28;20064;-73
2022/04/26 16:03:07;;;;;;;6.07;3.40;;;;;;;11.82;82.51;100338.66;5069536;28;20494;-73
2022/04/26 16:05:33;;;;;;;4.53;3.10;;;;;;;11.70;82.87;100340.06;5070529;28;20032;-73
2022/04/26 16:07:59;;;;;;;4.70;3.40;;;;;;;11.74;84.37;100348.56;5071406;28;20105;-74
2022/04/26 16:21:31;;;;;;;4.85;2.50;;;;;;;11.36;82.81;100370.63;5071324;28;20051;-75
2022/04/26 16:23:57;;;;;;;5.68;3.95;;;;;;;11.29;86.63;100376.84;5070711;28;20071;-74
2022/04/26 16:26:24;;;;;;;3.78;3.20;;;;;;;11.39;86.54;100380.09;5071408;28;20036;-72
2022/04/26 16:28:51;;;;;;;4.60;3.22;;;;;;;11.39;86.39;100380.09;5071291;28;20393;-72
2022/04/26 16:31:19;;;;;;;4.47;3.10;;;;;;;11.30;88.77;100378.50;5071493;28;20474;-72
2022/04/26 16:33:45;;;;;;;3.67;2.67;;;;;;;11.13;89.06;100380.41;5070655;28;20082;-72